Florence, KY

7:44 AM EST on February 28, 2017 (GMT -0500)
Saddlebrook | | Change Station

Elev 909 ft 38.97 °N, 84.65 °W | Updated 2 seconds ago

Rain
Rain
44.4 °F
Feels Like 42 °F
N
4.0
Wind Variable Wind from East

Today
High -- | Low -- °F
--% Chance of Precip.
Yesterday
High -- | Low -- °F
Precip. -- in
Pressure 30.10 in
Visibility 8.0 miles
Clouds Few 1900 ft
Mostly Cloudy 7000 ft
Overcast 8500 ft
Windchill 42 °F
Dew Point 44 °F
Humidity 98%
Rainfall 0.27 in
Snow Depth Not available.
7:12 AM 6:30 PM
Waxing Crescent, 5% visible
METAR KCVG 281152Z 18007KT 8SM -RA FEW019 BKN070 OVC085 08/07 A3009 RMK AO2 LTG DSNT SW SLP191 P0008 60013 70019 T00780072 10078 20061 50001
Pressure 30.10 in
Visibility 8.0 miles
Clouds Few 1900 ft
Mostly Cloudy 7000 ft
Overcast 8500 ft
Windchill 42 °F
Dew Point 44 °F
Humidity 98%
Rainfall 0.27 in
Snow Depth Not available.
7:12 AM 6:30 PM
Waxing Crescent, 5% visible
METAR KCVG 281152Z 18007KT 8SM -RA FEW019 BKN070 OVC085 08/07 A3009 RMK AO2 LTG DSNT SW SLP191 P0008 60013 70019 T00780072 10078 20061 50001

Get Your Daily Forecast Email!

Thanks for signing up!

Be on the lookout for a verification email in your inbox.

You'll start receiving the daily forecast at 8 AM.

×

10-Day Weather Forecast

Almanac

Astronomy

Feb. 28, 2017 Rise Set
Actual Time
Civil Twilight
Nautical Twilight
Astronomical Twilight
Moon
Length of Visible Light
Length of Day
Tomorrow will be .
, % of the Moon is Illuminated

Today's Extremes

State Highs State Lows

Community

WunderPhotos

Upload Photos

1,962,540 photos uploaded!

WunderBlog® & News

Nearby

Air Quality

  Air Quality AQ Index Pollutant
Not available.

Snow Depth

Station Depth Elevation

Earthquake Activity

City Distance Mag. Time & Date
Minimum magnitude displayed is 2.5.

Coastal Water Temperatures

Place Temperature

Stations

Nearby Weather Stations

Station Location Temp. Windchill Dew Point Humidity Wind Precip. Elev Updated Type
                   

Watches & Warnings

There are currently no watches in effect.